createdAt,value
2023-11-12T00:04:35.396Z,2.38
2023-11-12T00:15:21.862Z,3.03
2023-11-12T00:20:46.245Z,2.60
2023-11-12T00:26:09.201Z,2.20
2023-11-12T00:31:32.170Z,2.10
2023-11-12T00:36:56.449Z,2.22
2023-11-12T00:42:19.659Z,2.58
2023-11-12T00:47:42.754Z,2.38
2023-11-12T00:53:07.113Z,2.20
2023-11-12T00:58:30.049Z,2.20
2023-11-12T01:03:53.121Z,2.30
2023-11-12T01:09:17.471Z,2.60
2023-11-12T01:14:40.531Z,2.30
2023-11-12T01:20:04.449Z,2.00
2023-11-12T01:25:28.966Z,2.33
2023-11-12T01:30:52.448Z,1.70
2023-11-12T01:36:15.582Z,1.92
2023-11-12T01:41:40.014Z,2.13
2023-11-12T01:47:04.662Z,1.65
2023-11-12T01:52:27.855Z,1.42
2023-11-12T01:57:53.953Z,2.17
2023-11-12T02:03:22.366Z,2.00
2023-11-12T02:08:46.180Z,2.10
2023-11-12T02:14:11.230Z,1.92
2023-11-12T02:19:34.259Z,2.65
2023-11-12T02:24:58.538Z,1.95
2023-11-12T02:30:21.709Z,2.20
2023-11-12T02:35:47.612Z,2.05
2023-11-12T02:41:13.974Z,2.40
2023-11-12T02:46:37.147Z,2.10
2023-11-12T02:52:00.076Z,2.10
2023-11-12T02:57:24.510Z,2.28
2023-11-12T03:02:48.006Z,2.03
2023-11-12T03:08:10.965Z,2.03
2023-11-12T03:13:35.334Z,2.60
2023-11-12T03:18:58.304Z,2.00
2023-11-12T03:24:21.262Z,2.30
2023-11-12T03:29:47.139Z,2.30
2023-11-12T03:35:10.495Z,2.15
2023-11-12T03:40:33.549Z,2.80
2023-11-12T03:45:57.848Z,2.63
2023-11-12T03:51:20.875Z,1.90
2023-11-12T03:56:43.885Z,2.67
2023-11-12T04:02:08.135Z,2.53
2023-11-12T04:07:31.187Z,1.95
2023-11-12T04:12:54.188Z,2.35
2023-11-12T04:18:18.586Z,2.17
2023-11-12T04:23:45.137Z,1.80
2023-11-12T04:29:08.990Z,2.50
2023-11-12T04:34:33.346Z,1.87
2023-11-12T04:39:56.425Z,1.88
2023-11-12T04:45:21.321Z,2.28
2023-11-12T04:50:46.632Z,2.45
2023-11-12T04:56:10.363Z,2.05
2023-11-12T05:01:33.696Z,2.28
2023-11-12T05:06:58.205Z,2.45
2023-11-12T05:12:22.190Z,1.77
2023-11-12T05:17:45.358Z,1.80
2023-11-12T05:23:09.747Z,2.58
2023-11-12T05:28:32.869Z,1.83
2023-11-12T05:33:55.817Z,2.35
2023-11-12T05:39:21.013Z,2.72
2023-11-12T05:44:43.984Z,2.53
2023-11-12T05:50:07.963Z,2.10
2023-11-12T05:55:32.309Z,3.00
2023-11-12T06:00:56.688Z,2.17
2023-11-12T06:06:19.707Z,2.75
2023-11-12T06:11:43.944Z,3.60
2023-11-12T06:17:06.849Z,2.65
2023-11-12T06:22:29.819Z,3.47
2023-11-12T06:27:54.159Z,3.78
2023-11-12T06:33:17.280Z,2.92
2023-11-12T06:38:40.276Z,4.03
2023-11-12T06:44:04.833Z,3.50
2023-11-12T06:49:27.763Z,3.15
2023-11-12T06:54:50.920Z,4.53
2023-11-12T07:00:17.792Z,5.03
2023-11-12T07:05:41.384Z,4.88
2023-11-12T07:11:05.022Z,4.60
2023-11-12T07:16:29.313Z,4.22
2023-11-12T07:21:52.606Z,4.20
2023-11-12T07:27:15.599Z,4.40
2023-11-12T07:32:39.881Z,3.58
2023-11-12T07:38:02.915Z,3.60
2023-11-12T07:43:26.364Z,3.63
2023-11-12T07:48:51.811Z,3.58
2023-11-12T07:54:15.250Z,3.40
2023-11-12T07:59:38.310Z,3.80
2023-11-12T08:05:09.468Z,2.90
2023-11-12T08:10:32.878Z,3.30
2023-11-12T08:15:55.817Z,2.92
2023-11-12T08:21:20.350Z,2.90
2023-11-12T08:26:43.472Z,1.85
2023-11-12T08:32:07.535Z,2.30
2023-11-12T08:37:31.977Z,2.73
2023-11-12T08:42:55.321Z,1.83
2023-11-12T08:48:19.235Z,3.08
2023-11-12T08:53:43.828Z,2.67
2023-11-12T08:59:08.391Z,2.25
2023-11-12T09:04:31.437Z,2.00
2023-11-12T09:09:56.648Z,2.47
2023-11-12T09:15:19.707Z,2.35
2023-11-12T09:20:44.501Z,2.85
2023-11-12T09:26:09.540Z,3.10
2023-11-12T09:31:33.031Z,2.40
2023-11-12T09:36:57.377Z,2.70
2023-11-12T09:42:24.793Z,2.20
2023-11-12T09:47:57.725Z,2.55
2023-11-12T09:53:20.789Z,2.70
2023-11-12T09:58:47.390Z,2.60
2023-11-12T10:04:11.007Z,2.67
2023-11-12T10:09:35.984Z,2.50
2023-11-12T10:15:03.344Z,2.13
2023-11-12T10:20:28.263Z,2.33
2023-11-12T10:25:51.442Z,2.60
2023-11-12T10:31:15.879Z,2.50
2023-11-12T10:36:38.891Z,2.50
2023-11-12T10:42:01.973Z,2.65
2023-11-12T10:47:27.644Z,2.53
2023-11-12T10:52:51.192Z,2.40
2023-11-12T10:58:16.211Z,2.28
2023-11-12T11:03:40.583Z,2.08
2023-11-12T11:09:04.090Z,1.75
2023-11-12T11:14:29.138Z,2.15
2023-11-12T11:19:56.931Z,1.65
2023-11-12T11:25:26.260Z,2.00
2023-11-12T11:31:11.768Z,2.20
2023-11-12T11:36:36.713Z,2.53
2023-11-12T11:42:30.109Z,2.50
2023-11-12T11:48:06.313Z,2.35
2023-11-12T11:53:30.667Z,1.95
2023-11-12T11:58:54.814Z,2.10
2023-11-12T12:04:18.729Z,1.73
2023-11-12T12:09:43.066Z,1.63
2023-11-12T12:15:09.161Z,1.95
2023-11-12T12:20:39.828Z,1.52
2023-11-12T12:26:04.376Z,1.60
2023-11-12T12:31:29.823Z,1.40
2023-11-12T12:37:03.308Z,1.60
2023-11-12T12:42:29.041Z,1.20
2023-11-12T12:47:56.792Z,0.75
2023-11-12T12:53:23.458Z,0.70
2023-11-12T12:58:48.313Z,0.70
2023-11-12T13:09:36.406Z,1.10
2023-11-12T13:15:00.775Z,0.73
2023-11-12T13:20:27.917Z,1.00
2023-11-12T13:25:52.730Z,1.02
2023-11-12T13:36:40.741Z,0.73
2023-11-12T13:42:04.702Z,1.30
2023-11-12T13:47:29.081Z,1.20
2023-11-12T13:52:53.242Z,1.30
2023-11-12T13:58:16.715Z,0.98
2023-11-12T14:03:41.861Z,1.35
2023-11-12T14:09:05.208Z,1.13
2023-11-12T14:14:28.315Z,1.63
2023-11-12T14:19:54.570Z,1.73
2023-11-12T14:25:20.211Z,1.60
2023-11-12T14:30:43.467Z,2.08
2023-11-12T14:36:11.987Z,2.20
2023-11-12T14:50:04.321Z,2.33
2023-11-12T14:55:28.833Z,2.15
2023-11-12T15:00:52.533Z,1.33
2023-11-12T15:06:17.159Z,3.55
2023-11-12T15:11:41.718Z,1.90
2023-11-12T15:22:31.472Z,1.88
2023-11-12T15:27:55.197Z,2.58
2023-11-12T15:33:18.393Z,2.90
2023-11-12T15:38:42.901Z,1.80
2023-11-12T15:44:06.934Z,0.77
2023-11-12T15:49:30.069Z,1.17
2023-11-12T15:55:03.758Z,1.27
2023-11-12T16:00:29.931Z,1.20
2023-11-12T16:06:00.962Z,4.50
2023-11-12T16:11:30.487Z,2.35
2023-11-12T16:16:57.814Z,2.03
2023-11-12T16:22:28.130Z,1.60
2023-11-12T16:33:47.230Z,3.35
2023-11-12T16:39:20.904Z,2.88
2023-11-12T16:44:53.121Z,8.02
2023-11-12T16:56:02.968Z,6.43
2023-11-12T17:01:56.639Z,7.93
2023-11-12T17:07:46.574Z,6.97
2023-11-12T17:13:21.228Z,6.35
2023-11-12T17:18:51.435Z,5.13
2023-11-12T17:24:17.561Z,6.28
2023-11-12T17:29:49.797Z,4.68
2023-11-12T17:35:27.664Z,4.30
2023-11-12T17:41:01.068Z,3.85
2023-11-12T17:46:32.997Z,3.70
2023-11-12T17:52:16.095Z,3.72
2023-11-12T17:57:46.596Z,3.50
2023-11-12T18:03:52.805Z,3.65
2023-11-12T18:09:53.722Z,2.88
2023-11-12T18:15:31.211Z,3.30
2023-11-12T18:20:59.707Z,3.38
2023-11-12T18:26:32.390Z,3.10
2023-11-12T18:32:07.869Z,2.63
2023-11-12T18:37:32.675Z,3.00
2023-11-12T18:43:17.930Z,3.33
2023-11-12T18:49:02.785Z,3.70
2023-11-12T18:54:31.288Z,2.35
2023-11-12T19:00:04.952Z,2.40
2023-11-12T19:05:50.715Z,2.97
2023-11-12T19:11:29.440Z,2.90
2023-11-12T19:17:12.488Z,3.13
2023-11-12T19:23:01.638Z,3.50
2023-11-12T19:29:01.517Z,3.17
2023-11-12T19:34:59.065Z,3.53
2023-11-12T19:40:30.222Z,3.05
2023-11-12T19:46:14.617Z,2.10
2023-11-12T19:52:04.166Z,2.50
2023-11-12T19:57:34.609Z,2.40
2023-11-12T20:03:25.604Z,2.60
2023-11-12T20:09:29.392Z,2.63
2023-11-12T20:15:18.299Z,2.25
2023-11-12T20:20:59.582Z,2.40
2023-11-12T20:26:38.472Z,2.30
2023-11-12T20:32:11.071Z,2.67
2023-11-12T20:37:58.025Z,2.47
2023-11-12T20:44:11.905Z,2.60
2023-11-12T20:50:28.879Z,3.00
2023-11-12T20:56:28.339Z,3.15
2023-11-12T21:02:24.661Z,2.85
2023-11-12T21:08:33.745Z,3.15
2023-11-12T21:14:06.287Z,3.15
2023-11-12T21:19:43.631Z,2.58
2023-11-12T21:25:25.816Z,3.00
2023-11-12T21:30:57.968Z,2.90
2023-11-12T21:36:37.490Z,2.80
2023-11-12T21:42:10.420Z,3.50
2023-11-12T21:47:37.278Z,3.90
2023-11-12T21:53:11.010Z,3.60
2023-11-12T21:58:54.786Z,3.63
2023-11-12T22:04:31.268Z,3.50
2023-11-12T22:10:50.781Z,3.10
2023-11-12T22:16:26.366Z,3.50
2023-11-12T22:22:01.269Z,3.92
2023-11-12T22:27:43.754Z,3.70
2023-11-12T22:33:42.694Z,3.83
2023-11-12T22:39:19.536Z,4.20
2023-11-12T22:44:55.608Z,4.55
2023-11-12T22:50:26.354Z,4.10
2023-11-12T22:56:03.768Z,4.00
2023-11-12T23:01:48.209Z,4.20
2023-11-12T23:13:07.794Z,3.83
2023-11-12T23:18:47.207Z,3.85
2023-11-12T23:24:19.551Z,3.75
2023-11-12T23:36:14.647Z,3.80
2023-11-12T23:41:57.403Z,4.30
2023-11-12T23:47:57.536Z,3.70
2023-11-12T23:53:32.728Z,3.75
2023-11-12T23:59:35.897Z,3.97
